sensor_id;sensor_type;location;lat;lon;timestamp;P1;durP1;ratioP1;P2;durP2;ratioP2
1691;SDS011;843;52.054;8.552;2022-07-17T00:00:04;9.67;;;6.03;;
1691;SDS011;843;52.054;8.552;2022-07-17T00:02:31;7.53;;;3.70;;
1691;SDS011;843;52.054;8.552;2022-07-17T00:04:59;6.60;;;3.57;;
1691;SDS011;843;52.054;8.552;2022-07-17T00:07:26;8.30;;;4.07;;
1691;SDS011;843;52.054;8.552;2022-07-17T00:09:52;5.10;;;3.40;;
1691;SDS011;843;52.054;8.552;2022-07-17T00:12:19;5.50;;;3.50;;
1691;SDS011;843;52.054;8.552;2022-07-17T00:14:46;4.87;;;3.03;;
1691;SDS011;843;52.054;8.552;2022-07-17T00:17:13;5.40;;;3.10;;
1691;SDS011;843;52.054;8.552;2022-07-17T00:19:39;6.03;;;3.40;;
1691;SDS011;843;52.054;8.552;2022-07-17T00:22:08;4.43;;;2.77;;
1691;SDS011;843;52.054;8.552;2022-07-17T00:24:35;4.43;;;2.73;;
1691;SDS011;843;52.054;8.552;2022-07-17T00:27:02;3.50;;;2.90;;
1691;SDS011;843;52.054;8.552;2022-07-17T00:29:29;7.33;;;2.70;;
1691;SDS011;843;52.054;8.552;2022-07-17T00:31:55;6.30;;;2.37;;
1691;SDS011;843;52.054;8.552;2022-07-17T00:34:22;4.77;;;3.03;;
1691;SDS011;843;52.054;8.552;2022-07-17T00:36:49;3.27;;;2.30;;
1691;SDS011;843;52.054;8.552;2022-07-17T00:39:17;9.60;;;2.73;;
1691;SDS011;843;52.054;8.552;2022-07-17T00:41:44;4.50;;;2.70;;
1691;SDS011;843;52.054;8.552;2022-07-17T00:44:11;4.70;;;2.80;;
1691;SDS011;843;52.054;8.552;2022-07-17T00:46:38;3.87;;;2.03;;
1691;SDS011;843;52.054;8.552;2022-07-17T00:49:05;3.53;;;2.43;;
1691;SDS011;843;52.054;8.552;2022-07-17T00:51:33;5.23;;;2.37;;
1691;SDS011;843;52.054;8.552;2022-07-17T00:54:00;4.23;;;2.60;;
1691;SDS011;843;52.054;8.552;2022-07-17T00:56:30;4.70;;;2.57;;
1691;SDS011;843;52.054;8.552;2022-07-17T00:58:58;4.60;;;2.60;;
1691;SDS011;843;52.054;8.552;2022-07-17T01:01:25;3.77;;;2.30;;
1691;SDS011;843;52.054;8.552;2022-07-17T01:03:51;5.90;;;3.27;;
1691;SDS011;843;52.054;8.552;2022-07-17T01:06:18;4.70;;;2.47;;
1691;SDS011;843;52.054;8.552;2022-07-17T01:08:45;8.67;;;2.97;;
1691;SDS011;843;52.054;8.552;2022-07-17T01:11:11;4.80;;;2.27;;
1691;SDS011;843;52.054;8.552;2022-07-17T01:13:39;4.43;;;1.97;;
1691;SDS011;843;52.054;8.552;2022-07-17T01:16:06;6.23;;;2.03;;
1691;SDS011;843;52.054;8.552;2022-07-17T01:18:33;5.13;;;1.80;;
1691;SDS011;843;52.054;8.552;2022-07-17T01:21:06;6.70;;;2.13;;
1691;SDS011;843;52.054;8.552;2022-07-17T01:23:33;4.33;;;2.00;;
1691;SDS011;843;52.054;8.552;2022-07-17T01:25:59;5.67;;;1.97;;
1691;SDS011;843;52.054;8.552;2022-07-17T01:28:26;7.30;;;2.30;;
1691;SDS011;843;52.054;8.552;2022-07-17T01:30:54;8.33;;;2.30;;
1691;SDS011;843;52.054;8.552;2022-07-17T01:33:21;3.20;;;1.70;;
1691;SDS011;843;52.054;8.552;2022-07-17T01:35:48;5.23;;;1.93;;
1691;SDS011;843;52.054;8.552;2022-07-17T01:38:16;4.87;;;2.13;;
1691;SDS011;843;52.054;8.552;2022-07-17T01:40:42;6.07;;;2.00;;
1691;SDS011;843;52.054;8.552;2022-07-17T01:43:09;4.60;;;1.93;;
1691;SDS011;843;52.054;8.552;2022-07-17T01:45:36;2.67;;;2.43;;
1691;SDS011;843;52.054;8.552;2022-07-17T01:48:03;2.80;;;1.80;;
1691;SDS011;843;52.054;8.552;2022-07-17T01:50:30;5.07;;;2.43;;
1691;SDS011;843;52.054;8.552;2022-07-17T01:52:57;3.90;;;1.70;;
1691;SDS011;843;52.054;8.552;2022-07-17T01:55:24;5.30;;;1.80;;
1691;SDS011;843;52.054;8.552;2022-07-17T01:57:51;4.67;;;2.10;;
1691;SDS011;843;52.054;8.552;2022-07-17T02:00:18;2.30;;;2.03;;
1691;SDS011;843;52.054;8.552;2022-07-17T02:02:47;7.60;;;2.00;;
1691;SDS011;843;52.054;8.552;2022-07-17T02:05:14;3.97;;;1.50;;
1691;SDS011;843;52.054;8.552;2022-07-17T02:07:41;4.57;;;1.93;;
1691;SDS011;843;52.054;8.552;2022-07-17T02:10:09;4.50;;;2.00;;
1691;SDS011;843;52.054;8.552;2022-07-17T02:12:37;5.60;;;2.23;;
1691;SDS011;843;52.054;8.552;2022-07-17T02:15:04;4.40;;;2.40;;
1691;SDS011;843;52.054;8.552;2022-07-17T02:17:31;5.43;;;2.37;;
1691;SDS011;843;52.054;8.552;2022-07-17T02:19:58;4.03;;;2.03;;
1691;SDS011;843;52.054;8.552;2022-07-17T02:22:25;2.40;;;1.83;;
1691;SDS011;843;52.054;8.552;2022-07-17T02:24:52;3.40;;;2.10;;
1691;SDS011;843;52.054;8.552;2022-07-17T02:27:18;3.00;;;2.37;;
1691;SDS011;843;52.054;8.552;2022-07-17T02:29:47;3.03;;;2.07;;
1691;SDS011;843;52.054;8.552;2022-07-17T02:32:13;5.80;;;2.53;;
1691;SDS011;843;52.054;8.552;2022-07-17T02:34:40;4.60;;;2.43;;
1691;SDS011;843;52.054;8.552;2022-07-17T02:37:07;4.83;;;1.90;;
1691;SDS011;843;52.054;8.552;2022-07-17T02:39:35;2.80;;;2.30;;
1691;SDS011;843;52.054;8.552;2022-07-17T02:42:01;3.10;;;2.27;;
1691;SDS011;843;52.054;8.552;2022-07-17T02:44:28;6.30;;;2.00;;
1691;SDS011;843;52.054;8.552;2022-07-17T02:46:56;2.90;;;1.83;;
1691;SDS011;843;52.054;8.552;2022-07-17T02:49:23;4.13;;;2.10;;
1691;SDS011;843;52.054;8.552;2022-07-17T02:51:50;4.27;;;2.00;;
1691;SDS011;843;52.054;8.552;2022-07-17T02:54:16;3.53;;;1.80;;
1691;SDS011;843;52.054;8.552;2022-07-17T02:56:43;2.73;;;1.67;;
1691;SDS011;843;52.054;8.552;2022-07-17T02:59:09;2.43;;;1.70;;
1691;SDS011;843;52.054;8.552;2022-07-17T03:01:36;2.40;;;2.13;;
1691;SDS011;843;52.054;8.552;2022-07-17T03:04:04;8.37;;;1.83;;
1691;SDS011;843;52.054;8.552;2022-07-17T03:06:31;4.87;;;1.83;;
1691;SDS011;843;52.054;8.552;2022-07-17T03:08:57;5.53;;;1.97;;
1691;SDS011;843;52.054;8.552;2022-07-17T03:11:24;3.60;;;1.77;;
1691;SDS011;843;52.054;8.552;2022-07-17T03:13:51;5.77;;;2.10;;
1691;SDS011;843;52.054;8.552;2022-07-17T03:16:17;2.17;;;1.53;;
1691;SDS011;843;52.054;8.552;2022-07-17T03:18:44;2.03;;;1.67;;
1691;SDS011;843;52.054;8.552;2022-07-17T03:21:12;4.03;;;2.03;;
1691;SDS011;843;52.054;8.552;2022-07-17T03:23:39;4.77;;;2.40;;
1691;SDS011;843;52.054;8.552;2022-07-17T03:26:05;2.87;;;1.80;;
1691;SDS011;843;52.054;8.552;2022-07-17T03:28:32;3.07;;;1.83;;
1691;SDS011;843;52.054;8.552;2022-07-17T03:30:59;3.27;;;2.13;;
1691;SDS011;843;52.054;8.552;2022-07-17T03:33:25;6.10;;;2.57;;
1691;SDS011;843;52.054;8.552;2022-07-17T03:35:52;3.70;;;1.97;;
1691;SDS011;843;52.054;8.552;2022-07-17T03:38:20;3.73;;;2.00;;
1691;SDS011;843;52.054;8.552;2022-07-17T03:40:47;4.77;;;1.70;;
1691;SDS011;843;52.054;8.552;2022-07-17T03:43:13;4.03;;;2.03;;
1691;SDS011;843;52.054;8.552;2022-07-17T03:45:41;3.70;;;2.10;;
1691;SDS011;843;52.054;8.552;2022-07-17T03:48:07;2.67;;;2.03;;
1691;SDS011;843;52.054;8.552;2022-07-17T03:50:34;2.30;;;1.87;;
1691;SDS011;843;52.054;8.552;2022-07-17T03:53:01;2.73;;;1.90;;
1691;SDS011;843;52.054;8.552;2022-07-17T03:55:29;4.00;;;2.00;;
1691;SDS011;843;52.054;8.552;2022-07-17T03:57:56;3.53;;;1.53;;
1691;SDS011;843;52.054;8.552;2022-07-17T04:00:22;5.77;;;2.30;;
1691;SDS011;843;52.054;8.552;2022-07-17T04:02:49;1.70;;;1.40;;
1691;SDS011;843;52.054;8.552;2022-07-17T04:05:16;3.60;;;1.70;;
1691;SDS011;843;52.054;8.552;2022-07-17T04:07:43;5.90;;;2.07;;
1691;SDS011;843;52.054;8.552;2022-07-17T04:10:11;3.10;;;1.80;;
1691;SDS011;843;52.054;8.552;2022-07-17T04:12:39;1.90;;;1.53;;
1691;SDS011;843;52.054;8.552;2022-07-17T04:15:07;3.50;;;1.73;;
1691;SDS011;843;52.054;8.552;2022-07-17T04:17:34;4.63;;;1.83;;
1691;SDS011;843;52.054;8.552;2022-07-17T04:20:02;3.63;;;1.73;;
1691;SDS011;843;52.054;8.552;2022-07-17T04:22:29;4.77;;;1.90;;
1691;SDS011;843;52.054;8.552;2022-07-17T04:24:56;2.30;;;1.80;;
1691;SDS011;843;52.054;8.552;2022-07-17T04:27:22;3.30;;;1.77;;
1691;SDS011;843;52.054;8.552;2022-07-17T04:29:50;4.00;;;1.80;;
1691;SDS011;843;52.054;8.552;2022-07-17T04:32:17;8.80;;;2.30;;
1691;SDS011;843;52.054;8.552;2022-07-17T04:34:44;2.83;;;1.30;;
1691;SDS011;843;52.054;8.552;2022-07-17T04:37:10;3.17;;;2.23;;
1691;SDS011;843;52.054;8.552;2022-07-17T04:39:37;4.33;;;2.30;;
1691;SDS011;843;52.054;8.552;2022-07-17T04:42:04;3.67;;;1.87;;
1691;SDS011;843;52.054;8.552;2022-07-17T04:44:31;6.10;;;2.30;;
1691;SDS011;843;52.054;8.552;2022-07-17T04:46:59;2.30;;;1.70;;
1691;SDS011;843;52.054;8.552;2022-07-17T04:49:26;1.80;;;1.37;;
1691;SDS011;843;52.054;8.552;2022-07-17T04:51:52;4.30;;;1.70;;
1691;SDS011;843;52.054;8.552;2022-07-17T04:54:19;2.97;;;1.87;;
1691;SDS011;843;52.054;8.552;2022-07-17T04:56:46;2.33;;;1.73;;
1691;SDS011;843;52.054;8.552;2022-07-17T04:59:12;2.47;;;1.70;;
1691;SDS011;843;52.054;8.552;2022-07-17T05:01:39;5.73;;;1.63;;
1691;SDS011;843;52.054;8.552;2022-07-17T05:04:07;4.57;;;1.40;;
1691;SDS011;843;52.054;8.552;2022-07-17T05:06:34;7.73;;;2.17;;
1691;SDS011;843;52.054;8.552;2022-07-17T05:09:00;2.97;;;1.70;;
1691;SDS011;843;52.054;8.552;2022-07-17T05:11:27;2.60;;;1.20;;
1691;SDS011;843;52.054;8.552;2022-07-17T05:13:54;3.83;;;1.70;;
1691;SDS011;843;52.054;8.552;2022-07-17T05:16:20;3.20;;;1.70;;
1691;SDS011;843;52.054;8.552;2022-07-17T05:18:47;2.93;;;1.40;;
1691;SDS011;843;52.054;8.552;2022-07-17T05:21:15;2.90;;;1.30;;
1691;SDS011;843;52.054;8.552;2022-07-17T05:23:42;3.83;;;1.67;;
1691;SDS011;843;52.054;8.552;2022-07-17T05:26:08;3.90;;;1.70;;
1691;SDS011;843;52.054;8.552;2022-07-17T05:28:35;3.37;;;1.80;;
1691;SDS011;843;52.054;8.552;2022-07-17T05:31:02;5.23;;;1.73;;
1691;SDS011;843;52.054;8.552;2022-07-17T05:33:29;4.93;;;2.33;;
1691;SDS011;843;52.054;8.552;2022-07-17T05:35:55;4.17;;;1.50;;
1691;SDS011;843;52.054;8.552;2022-07-17T05:38:23;3.77;;;1.47;;
1691;SDS011;843;52.054;8.552;2022-07-17T05:40:50;5.27;;;2.13;;
1691;SDS011;843;52.054;8.552;2022-07-17T05:43:17;3.80;;;1.43;;
1691;SDS011;843;52.054;8.552;2022-07-17T05:45:43;9.60;;;2.27;;
1691;SDS011;843;52.054;8.552;2022-07-17T05:48:10;3.63;;;1.43;;
1691;SDS011;843;52.054;8.552;2022-07-17T05:50:37;3.33;;;1.50;;
1691;SDS011;843;52.054;8.552;2022-07-17T05:53:03;5.20;;;2.00;;
1691;SDS011;843;52.054;8.552;2022-07-17T05:55:31;4.70;;;1.57;;
1691;SDS011;843;52.054;8.552;2022-07-17T05:57:58;4.00;;;2.30;;
1691;SDS011;843;52.054;8.552;2022-07-17T06:00:25;6.00;;;1.90;;
1691;SDS011;843;52.054;8.552;2022-07-17T06:02:51;7.37;;;1.60;;
1691;SDS011;843;52.054;8.552;2022-07-17T06:05:18;5.90;;;1.57;;
1691;SDS011;843;52.054;8.552;2022-07-17T06:07:45;3.67;;;1.53;;
1691;SDS011;843;52.054;8.552;2022-07-17T06:10:11;5.00;;;1.80;;
1691;SDS011;843;52.054;8.552;2022-07-17T06:12:40;5.60;;;1.83;;
1691;SDS011;843;52.054;8.552;2022-07-17T06:15:06;4.37;;;2.03;;
1691;SDS011;843;52.054;8.552;2022-07-17T06:17:33;8.40;;;2.40;;
1691;SDS011;843;52.054;8.552;2022-07-17T06:20:00;4.23;;;2.00;;
1691;SDS011;843;52.054;8.552;2022-07-17T06:22:27;4.20;;;1.90;;
1691;SDS011;843;52.054;8.552;2022-07-17T06:24:54;4.77;;;2.00;;
1691;SDS011;843;52.054;8.552;2022-07-17T06:27:20;4.33;;;2.17;;
1691;SDS011;843;52.054;8.552;2022-07-17T06:29:48;3.50;;;2.00;;
1691;SDS011;843;52.054;8.552;2022-07-17T06:32:15;7.13;;;2.40;;
1691;SDS011;843;52.054;8.552;2022-07-17T06:34:42;5.43;;;2.10;;
1691;SDS011;843;52.054;8.552;2022-07-17T06:37:09;5.27;;;2.70;;
1691;SDS011;843;52.054;8.552;2022-07-17T06:39:35;9.53;;;2.40;;
1691;SDS011;843;52.054;8.552;2022-07-17T06:42:02;5.37;;;2.03;;
1691;SDS011;843;52.054;8.552;2022-07-17T06:44:29;2.43;;;1.60;;
1691;SDS011;843;52.054;8.552;2022-07-17T06:46:57;3.40;;;1.67;;
1691;SDS011;843;52.054;8.552;2022-07-17T06:49:24;5.90;;;2.17;;
1691;SDS011;843;52.054;8.552;2022-07-17T06:51:51;3.80;;;2.23;;
1691;SDS011;843;52.054;8.552;2022-07-17T06:54:17;5.20;;;1.60;;
1691;SDS011;843;52.054;8.552;2022-07-17T06:56:44;2.47;;;1.63;;
1691;SDS011;843;52.054;8.552;2022-07-17T06:59:11;4.70;;;1.97;;
1691;SDS011;843;52.054;8.552;2022-07-17T07:01:38;4.60;;;2.20;;
1691;SDS011;843;52.054;8.552;2022-07-17T07:04:06;7.47;;;2.00;;
1691;SDS011;843;52.054;8.552;2022-07-17T07:06:32;4.63;;;1.67;;
1691;SDS011;843;52.054;8.552;2022-07-17T07:08:59;5.00;;;1.60;;
1691;SDS011;843;52.054;8.552;2022-07-17T07:11:26;7.30;;;1.90;;
1691;SDS011;843;52.054;8.552;2022-07-17T07:13:53;5.10;;;2.10;;
1691;SDS011;843;52.054;8.552;2022-07-17T07:16:20;4.23;;;1.33;;
1691;SDS011;843;52.054;8.552;2022-07-17T07:18:47;3.60;;;1.40;;
1691;SDS011;843;52.054;8.552;2022-07-17T07:21:15;6.63;;;1.40;;
1691;SDS011;843;52.054;8.552;2022-07-17T07:23:42;4.47;;;1.67;;
1691;SDS011;843;52.054;8.552;2022-07-17T07:26:08;4.80;;;1.07;;
1691;SDS011;843;52.054;8.552;2022-07-17T07:28:35;4.73;;;1.60;;
1691;SDS011;843;52.054;8.552;2022-07-17T07:31:03;2.50;;;1.30;;
1691;SDS011;843;52.054;8.552;2022-07-17T07:33:30;4.43;;;1.30;;
1691;SDS011;843;52.054;8.552;2022-07-17T07:35:56;3.60;;;1.40;;
1691;SDS011;843;52.054;8.552;2022-07-17T07:38:24;2.77;;;1.30;;
1691;SDS011;843;52.054;8.552;2022-07-17T07:40:51;5.90;;;1.30;;
1691;SDS011;843;52.054;8.552;2022-07-17T07:43:18;2.47;;;1.30;;
1691;SDS011;843;52.054;8.552;2022-07-17T07:45:45;2.50;;;1.00;;
1691;SDS011;843;52.054;8.552;2022-07-17T07:48:11;4.70;;;1.70;;
1691;SDS011;843;52.054;8.552;2022-07-17T07:50:38;4.77;;;1.63;;
1691;SDS011;843;52.054;8.552;2022-07-17T07:53:05;5.03;;;1.30;;
1691;SDS011;843;52.054;8.552;2022-07-17T07:55:33;5.23;;;1.73;;
1691;SDS011;843;52.054;8.552;2022-07-17T07:58:03;5.50;;;1.73;;
1691;SDS011;843;52.054;8.552;2022-07-17T08:00:30;4.30;;;1.43;;
1691;SDS011;843;52.054;8.552;2022-07-17T08:02:57;5.57;;;1.50;;
1691;SDS011;843;52.054;8.552;2022-07-17T08:05:24;5.23;;;0.97;;
1691;SDS011;843;52.054;8.552;2022-07-17T08:07:51;6.43;;;1.80;;
1691;SDS011;843;52.054;8.552;2022-07-17T08:10:17;3.73;;;1.50;;
1691;SDS011;843;52.054;8.552;2022-07-17T08:12:46;5.13;;;1.70;;
1691;SDS011;843;52.054;8.552;2022-07-17T08:15:13;4.57;;;1.13;;
1691;SDS011;843;52.054;8.552;2022-07-17T08:17:40;5.40;;;1.20;;
1691;SDS011;843;52.054;8.552;2022-07-17T08:20:07;4.23;;;1.50;;
1691;SDS011;843;52.054;8.552;2022-07-17T08:22:35;2.63;;;0.90;;
1691;SDS011;843;52.054;8.552;2022-07-17T08:25:02;6.83;;;1.70;;
1691;SDS011;843;52.054;8.552;2022-07-17T08:27:34;5.00;;;1.27;;
1691;SDS011;843;52.054;8.552;2022-07-17T08:30:02;6.70;;;1.37;;
1691;SDS011;843;52.054;8.552;2022-07-17T08:32:30;4.30;;;1.20;;
1691;SDS011;843;52.054;8.552;2022-07-17T08:34:56;4.77;;;1.43;;
1691;SDS011;843;52.054;8.552;2022-07-17T08:37:23;3.10;;;1.07;;
1691;SDS011;843;52.054;8.552;2022-07-17T08:39:50;3.60;;;1.40;;
1691;SDS011;843;52.054;8.552;2022-07-17T08:42:17;2.80;;;1.00;;
1691;SDS011;843;52.054;8.552;2022-07-17T08:44:44;3.40;;;1.20;;
1691;SDS011;843;52.054;8.552;2022-07-17T08:47:13;2.60;;;1.33;;
1691;SDS011;843;52.054;8.552;2022-07-17T08:49:40;4.10;;;1.50;;
1691;SDS011;843;52.054;8.552;2022-07-17T08:52:09;3.47;;;1.43;;
1691;SDS011;843;52.054;8.552;2022-07-17T08:54:36;3.80;;;1.00;;
1691;SDS011;843;52.054;8.552;2022-07-17T08:57:03;3.13;;;1.33;;
1691;SDS011;843;52.054;8.552;2022-07-17T08:59:30;4.00;;;1.20;;
1691;SDS011;843;52.054;8.552;2022-07-17T09:01:58;1.97;;;0.80;;
1691;SDS011;843;52.054;8.552;2022-07-17T09:04:26;2.33;;;0.90;;
1691;SDS011;843;52.054;8.552;2022-07-17T09:07:00;3.50;;;0.87;;
1691;SDS011;843;52.054;8.552;2022-07-17T09:09:27;3.80;;;1.07;;
1691;SDS011;843;52.054;8.552;2022-07-17T09:11:55;3.83;;;1.30;;
1691;SDS011;843;52.054;8.552;2022-07-17T09:14:23;2.23;;;1.20;;
1691;SDS011;843;52.054;8.552;2022-07-17T09:16:51;2.97;;;1.00;;
1691;SDS011;843;52.054;8.552;2022-07-17T09:19:27;3.20;;;1.50;;
1691;SDS011;843;52.054;8.552;2022-07-17T09:22:05;3.67;;;1.40;;
1691;SDS011;843;52.054;8.552;2022-07-17T09:24:40;2.80;;;1.40;;
1691;SDS011;843;52.054;8.552;2022-07-17T09:27:08;2.03;;;0.90;;
1691;SDS011;843;52.054;8.552;2022-07-17T09:29:35;2.03;;;0.87;;
1691;SDS011;843;52.054;8.552;2022-07-17T09:32:02;4.70;;;1.40;;
1691;SDS011;843;52.054;8.552;2022-07-17T09:34:30;2.80;;;1.10;;
1691;SDS011;843;52.054;8.552;2022-07-17T09:37:00;4.00;;;1.00;;
1691;SDS011;843;52.054;8.552;2022-07-17T09:39:34;3.30;;;0.90;;
1691;SDS011;843;52.054;8.552;2022-07-17T09:42:02;3.53;;;1.07;;
1691;SDS011;843;52.054;8.552;2022-07-17T09:44:28;7.33;;;1.50;;
1691;SDS011;843;52.054;8.552;2022-07-17T09:46:55;3.30;;;1.10;;
1691;SDS011;843;52.054;8.552;2022-07-17T09:49:23;4.37;;;1.20;;
1691;SDS011;843;52.054;8.552;2022-07-17T09:51:54;3.93;;;1.47;;
1691;SDS011;843;52.054;8.552;2022-07-17T09:54:21;8.60;;;1.40;;
1691;SDS011;843;52.054;8.552;2022-07-17T09:56:49;2.93;;;0.97;;
1691;SDS011;843;52.054;8.552;2022-07-17T09:59:17;3.80;;;1.03;;
1691;SDS011;843;52.054;8.552;2022-07-17T10:01:45;2.70;;;0.87;;
1691;SDS011;843;52.054;8.552;2022-07-17T10:04:14;2.17;;;1.10;;
1691;SDS011;843;52.054;8.552;2022-07-17T10:06:42;2.17;;;1.00;;
1691;SDS011;843;52.054;8.552;2022-07-17T10:09:10;5.27;;;0.83;;
1691;SDS011;843;52.054;8.552;2022-07-17T10:11:38;2.47;;;1.00;;
1691;SDS011;843;52.054;8.552;2022-07-17T10:14:08;2.97;;;0.80;;
1691;SDS011;843;52.054;8.552;2022-07-17T10:16:36;2.43;;;1.00;;
1691;SDS011;843;52.054;8.552;2022-07-17T10:19:14;2.13;;;1.00;;
1691;SDS011;843;52.054;8.552;2022-07-17T10:21:51;3.63;;;1.10;;
1691;SDS011;843;52.054;8.552;2022-07-17T10:24:20;2.00;;;0.80;;
1691;SDS011;843;52.054;8.552;2022-07-17T10:26:47;5.83;;;1.80;;
1691;SDS011;843;52.054;8.552;2022-07-17T10:29:28;4.63;;;1.13;;
1691;SDS011;843;52.054;8.552;2022-07-17T10:31:56;4.10;;;1.10;;
1691;SDS011;843;52.054;8.552;2022-07-17T10:34:36;2.97;;;1.10;;
1691;SDS011;843;52.054;8.552;2022-07-17T10:37:13;2.70;;;1.10;;
1691;SDS011;843;52.054;8.552;2022-07-17T10:39:52;2.60;;;1.03;;
1691;SDS011;843;52.054;8.552;2022-07-17T10:42:38;5.27;;;0.80;;
1691;SDS011;843;52.054;8.552;2022-07-17T10:45:11;3.03;;;0.93;;
1691;SDS011;843;52.054;8.552;2022-07-17T10:47:43;2.03;;;1.10;;
1691;SDS011;843;52.054;8.552;2022-07-17T10:50:11;4.40;;;0.90;;
1691;SDS011;843;52.054;8.552;2022-07-17T10:52:38;1.53;;;0.73;;
1691;SDS011;843;52.054;8.552;2022-07-17T10:55:16;2.60;;;0.80;;
1691;SDS011;843;52.054;8.552;2022-07-17T10:57:44;3.47;;;1.00;;
1691;SDS011;843;52.054;8.552;2022-07-17T11:00:12;3.07;;;1.17;;
1691;SDS011;843;52.054;8.552;2022-07-17T11:02:40;3.50;;;1.07;;
1691;SDS011;843;52.054;8.552;2022-07-17T11:05:07;1.97;;;0.80;;
1691;SDS011;843;52.054;8.552;2022-07-17T11:07:34;1.60;;;0.80;;
1691;SDS011;843;52.054;8.552;2022-07-17T11:10:01;2.30;;;1.00;;
1691;SDS011;843;52.054;8.552;2022-07-17T11:12:32;4.50;;;1.17;;
1691;SDS011;843;52.054;8.552;2022-07-17T11:14:59;3.63;;;0.60;;
1691;SDS011;843;52.054;8.552;2022-07-17T11:17:26;4.20;;;1.20;;
1691;SDS011;843;52.054;8.552;2022-07-17T11:19:53;3.80;;;1.20;;
1691;SDS011;843;52.054;8.552;2022-07-17T11:22:21;1.93;;;0.90;;
1691;SDS011;843;52.054;8.552;2022-07-17T11:24:49;6.77;;;1.13;;
1691;SDS011;843;52.054;8.552;2022-07-17T11:27:19;1.70;;;1.00;;
1691;SDS011;843;52.054;8.552;2022-07-17T11:29:48;2.80;;;1.17;;
1691;SDS011;843;52.054;8.552;2022-07-17T11:32:15;2.70;;;0.83;;
1691;SDS011;843;52.054;8.552;2022-07-17T11:34:42;2.40;;;1.10;;
1691;SDS011;843;52.054;8.552;2022-07-17T11:37:09;2.90;;;1.10;;
1691;SDS011;843;52.054;8.552;2022-07-17T11:39:39;3.43;;;1.00;;
1691;SDS011;843;52.054;8.552;2022-07-17T11:42:07;2.33;;;1.10;;
1691;SDS011;843;52.054;8.552;2022-07-17T11:44:34;3.93;;;1.03;;
1691;SDS011;843;52.054;8.552;2022-07-17T11:47:03;2.90;;;0.97;;
1691;SDS011;843;52.054;8.552;2022-07-17T11:49:32;2.40;;;0.97;;
1691;SDS011;843;52.054;8.552;2022-07-17T11:52:06;3.63;;;1.23;;
1691;SDS011;843;52.054;8.552;2022-07-17T11:54:43;4.77;;;1.13;;
1691;SDS011;843;52.054;8.552;2022-07-17T11:57:10;3.07;;;0.83;;
1691;SDS011;843;52.054;8.552;2022-07-17T11:59:37;3.27;;;1.10;;
1691;SDS011;843;52.054;8.552;2022-07-17T12:02:09;5.00;;;1.70;;
1691;SDS011;843;52.054;8.552;2022-07-17T12:04:47;3.20;;;1.30;;
1691;SDS011;843;52.054;8.552;2022-07-17T12:07:16;2.20;;;1.20;;
1691;SDS011;843;52.054;8.552;2022-07-17T12:09:43;2.17;;;1.10;;
1691;SDS011;843;52.054;8.552;2022-07-17T12:12:17;2.57;;;1.17;;
1691;SDS011;843;52.054;8.552;2022-07-17T12:14:46;2.53;;;1.10;;
1691;SDS011;843;52.054;8.552;2022-07-17T12:17:15;3.73;;;1.20;;
1691;SDS011;843;52.054;8.552;2022-07-17T12:19:41;3.00;;;0.90;;
1691;SDS011;843;52.054;8.552;2022-07-17T12:22:08;2.23;;;1.33;;
1691;SDS011;843;52.054;8.552;2022-07-17T12:24:36;1.90;;;0.90;;
1691;SDS011;843;52.054;8.552;2022-07-17T12:27:04;4.40;;;1.00;;
1691;SDS011;843;52.054;8.552;2022-07-17T12:29:32;1.87;;;1.00;;
1691;SDS011;843;52.054;8.552;2022-07-17T12:32:02;4.50;;;1.00;;
1691;SDS011;843;52.054;8.552;2022-07-17T12:34:32;2.20;;;1.10;;
1691;SDS011;843;52.054;8.552;2022-07-17T12:36:59;2.73;;;1.20;;
1691;SDS011;843;52.054;8.552;2022-07-17T12:39:26;5.27;;;1.37;;
1691;SDS011;843;52.054;8.552;2022-07-17T12:41:52;1.97;;;1.20;;
1691;SDS011;843;52.054;8.552;2022-07-17T12:44:19;2.23;;;1.10;;
1691;SDS011;843;52.054;8.552;2022-07-17T12:46:46;1.70;;;0.90;;
1691;SDS011;843;52.054;8.552;2022-07-17T12:49:12;2.70;;;1.13;;
1691;SDS011;843;52.054;8.552;2022-07-17T12:51:41;2.97;;;1.00;;
1691;SDS011;843;52.054;8.552;2022-07-17T12:54:07;2.70;;;1.30;;
1691;SDS011;843;52.054;8.552;2022-07-17T12:56:34;2.40;;;0.93;;
1691;SDS011;843;52.054;8.552;2022-07-17T12:59:01;5.67;;;1.20;;
1691;SDS011;843;52.054;8.552;2022-07-17T13:01:28;5.23;;;0.90;;
1691;SDS011;843;52.054;8.552;2022-07-17T13:03:55;1.40;;;0.93;;
1691;SDS011;843;52.054;8.552;2022-07-17T13:06:21;3.70;;;1.07;;
1691;SDS011;843;52.054;8.552;2022-07-17T13:08:50;1.90;;;0.90;;
1691;SDS011;843;52.054;8.552;2022-07-17T13:11:17;2.70;;;1.00;;
1691;SDS011;843;52.054;8.552;2022-07-17T13:13:43;3.10;;;0.90;;
1691;SDS011;843;52.054;8.552;2022-07-17T13:16:10;2.00;;;0.80;;
1691;SDS011;843;52.054;8.552;2022-07-17T13:18:38;2.47;;;1.00;;
1691;SDS011;843;52.054;8.552;2022-07-17T13:21:05;2.20;;;0.93;;
1691;SDS011;843;52.054;8.552;2022-07-17T13:23:32;2.40;;;1.00;;
1691;SDS011;843;52.054;8.552;2022-07-17T13:26:01;3.47;;;1.33;;
1691;SDS011;843;52.054;8.552;2022-07-17T13:28:28;2.50;;;1.20;;
1691;SDS011;843;52.054;8.552;2022-07-17T13:30:55;1.63;;;1.20;;
1691;SDS011;843;52.054;8.552;2022-07-17T13:33:21;2.63;;;1.00;;
1691;SDS011;843;52.054;8.552;2022-07-17T13:35:48;1.50;;;0.87;;
1691;SDS011;843;52.054;8.552;2022-07-17T13:38:15;4.10;;;0.90;;
1691;SDS011;843;52.054;8.552;2022-07-17T13:40:41;2.37;;;0.83;;
1691;SDS011;843;52.054;8.552;2022-07-17T13:43:10;1.80;;;1.00;;
1691;SDS011;843;52.054;8.552;2022-07-17T13:45:36;2.37;;;0.90;;
1691;SDS011;843;52.054;8.552;2022-07-17T13:48:03;3.30;;;1.10;;
1691;SDS011;843;52.054;8.552;2022-07-17T13:50:31;2.00;;;0.90;;
1691;SDS011;843;52.054;8.552;2022-07-17T13:52:57;4.00;;;1.20;;
1691;SDS011;843;52.054;8.552;2022-07-17T13:55:26;3.87;;;1.00;;
1691;SDS011;843;52.054;8.552;2022-07-17T13:57:52;2.73;;;1.40;;
1691;SDS011;843;52.054;8.552;2022-07-17T14:00:21;2.37;;;1.20;;
1691;SDS011;843;52.054;8.552;2022-07-17T14:02:47;2.93;;;1.10;;
1691;SDS011;843;52.054;8.552;2022-07-17T14:05:14;1.77;;;0.70;;
1691;SDS011;843;52.054;8.552;2022-07-17T14:07:41;2.30;;;1.10;;
1691;SDS011;843;52.054;8.552;2022-07-17T14:10:09;2.70;;;0.90;;
1691;SDS011;843;52.054;8.552;2022-07-17T14:12:36;1.40;;;0.80;;
1691;SDS011;843;52.054;8.552;2022-07-17T14:15:03;1.43;;;1.00;;
1691;SDS011;843;52.054;8.552;2022-07-17T14:17:33;2.27;;;1.00;;
1691;SDS011;843;52.054;8.552;2022-07-17T14:20:02;3.63;;;0.80;;
1691;SDS011;843;52.054;8.552;2022-07-17T14:22:30;1.90;;;0.73;;
1691;SDS011;843;52.054;8.552;2022-07-17T14:24:56;5.30;;;0.93;;
1691;SDS011;843;52.054;8.552;2022-07-17T14:27:23;3.13;;;1.00;;
1691;SDS011;843;52.054;8.552;2022-07-17T14:29:50;3.10;;;1.17;;
1691;SDS011;843;52.054;8.552;2022-07-17T14:32:17;1.83;;;0.80;;
1691;SDS011;843;52.054;8.552;2022-07-17T14:34:45;3.63;;;1.10;;
1691;SDS011;843;52.054;8.552;2022-07-17T14:37:22;2.57;;;1.00;;
1691;SDS011;843;52.054;8.552;2022-07-17T14:39:49;2.50;;;0.90;;
1691;SDS011;843;52.054;8.552;2022-07-17T14:42:15;2.93;;;0.90;;
1691;SDS011;843;52.054;8.552;2022-07-17T14:44:42;3.30;;;0.90;;
1691;SDS011;843;52.054;8.552;2022-07-17T14:47:09;1.93;;;0.80;;
1691;SDS011;843;52.054;8.552;2022-07-17T14:49:36;2.27;;;0.90;;
1691;SDS011;843;52.054;8.552;2022-07-17T14:52:03;1.53;;;0.63;;
1691;SDS011;843;52.054;8.552;2022-07-17T14:54:32;1.10;;;0.60;;
1691;SDS011;843;52.054;8.552;2022-07-17T14:56:59;2.63;;;0.83;;
1691;SDS011;843;52.054;8.552;2022-07-17T14:59:25;1.10;;;0.77;;
1691;SDS011;843;52.054;8.552;2022-07-17T15:01:52;1.97;;;0.70;;
1691;SDS011;843;52.054;8.552;2022-07-17T15:04:19;2.07;;;0.87;;
1691;SDS011;843;52.054;8.552;2022-07-17T15:06:46;3.80;;;0.87;;
1691;SDS011;843;52.054;8.552;2022-07-17T15:09:13;2.20;;;1.10;;
1691;SDS011;843;52.054;8.552;2022-07-17T15:11:41;3.40;;;2.20;;
1691;SDS011;843;52.054;8.552;2022-07-17T15:14:07;2.00;;;1.40;;
1691;SDS011;843;52.054;8.552;2022-07-17T15:16:34;2.37;;;1.17;;
1691;SDS011;843;52.054;8.552;2022-07-17T15:19:01;1.77;;;0.90;;
1691;SDS011;843;52.054;8.552;2022-07-17T15:21:28;1.53;;;0.63;;
1691;SDS011;843;52.054;8.552;2022-07-17T15:23:55;3.20;;;1.30;;
1691;SDS011;843;52.054;8.552;2022-07-17T15:26:21;2.33;;;1.30;;
1691;SDS011;843;52.054;8.552;2022-07-17T15:28:50;2.30;;;1.10;;
1691;SDS011;843;52.054;8.552;2022-07-17T15:31:16;2.63;;;0.80;;